ADDS METAR Data INFO
IDs: Format: Raw Decoded Include TAF

Data at: 2251 UTC 16 Jan 2018

PAGA 161956Z AUTO 28005KT 6SM BR CLR M17/M19 A2955 RMK AO2 SLP011 T11671189 FZRANO
PAGA 161856Z AUTO 28003KT 10SM CLR M18/M19 A2956 RMK AO2 SLP015 T11781194 FZRANO
PAGA 161756Z AUTO 28004KT 10SM CLR M17/M19 A2956 RMK AO2 SLP016 T11721189 11156 21183 58019 FZRANO
PAGA 161656Z AUTO 00000KT 10SM CLR M17/M19 A2958 RMK AO2 SLP022 T11721194 FZRANO
PAGA 161556Z AUTO 00000KT 10SM CLR M18/M21 A2961 RMK AO2 SLP031 T11831206 FZRANO
PAGA 161456Z AUTO 00000KT 10SM CLR M18/M20 A2962 RMK AO2 SLP035 T11831200 56009 FZRANO
PAGA 161356Z AUTO 00000KT 10SM CLR M18/M20 A2963 RMK AO2 SLP039 T11781200 FZRANO
PAGA 161256Z AUTO 36004KT 10SM CLR M16/M18 A2964 RMK AO2 SLP040 T11611178 FZRANO
PAGA 161156Z AUTO 36005KT 10SM CLR M18/M20 A2965 RMK AO2 SLP044 T11781200 11072 21178 51007 FZRANO
PAGA 161056Z AUTO 00000KT 10SM CLR M16/M18 A2965 RMK AO2 SLP043 T11611183 FZRANO
PAGA 160956Z AUTO 36003KT 10SM CLR M16/M18 A2964 RMK AO2 SLP040 T11611183 FZRANO
PAGA 160856Z AUTO 35003KT 10SM CLR M13/M15 A2963 RMK AO2 SLP037 T11331150 410501167 51011 FZRANO
PAGA 160756Z AUTO 10005KT 10SM CLR M10/M11 A2962 RMK AO2 SLP035 T11001111 FZRANO
PAGA 160656Z AUTO 10004KT 10SM CLR M09/M11 A2961 RMK AO2 SLP030 T10941106 FZRANO
PAGA 160556Z AUTO 14004KT 10SM CLR M07/M09 A2960 RMK AO2 SLP026 60000 T10721094 11050 21117 53018 FZRANO
PAGA 160456Z AUTO 12006KT 10SM CLR M07/M09 A2958 RMK AO2 SLP021 T10671089 FZRANO
PAGA 160356Z AUTO 10009KT 10SM FEW060 M05/M08 A2956 RMK AO2 SLP012 T10501083 FZRANO
PAGA 160256Z AUTO 11005KT 10SM BKN100 M06/M08 A2954 RMK AO2 SNE00 SLP008 P0000 60000 T10611083 51013 FZRANO
PAGA 160156Z AUTO 12007KT 9SM -SN BKN035 OVC043 M07/M08 A2953 RMK AO2 SNB49 SLP005 P0000 T10671083 FZRANO
PAGA 160056Z AUTO 00000KT 10SM OVC065 M11/M12 A2953 RMK AO2 SLP003 T11111122 FZRANO
PAGA 152356Z AUTO 00000KT 10SM FEW065 BKN100 M12/M13 A2950 RMK AO2 SLP995 T11171133 11117 21167 51020 FZRANO
PAGA 152256Z AUTO 10003KT 10SM CLR M13/M15 A2949 RMK AO2 SLP992 T11331150 FZRANO
PAGA 152156Z AUTO 01003KT 10SM CLR M13/M15 A2947 RMK AO2 SLP984 T11331150 FZRANO
PAGA 152056Z AUTO 26003KT 10SM CLR M15/M17 A2944 RMK AO2 SLP975 T11501167 52014 FZRANO
PAGA 151956Z AUTO 00000KT 10SM CLR M16/M19 A2943 RMK AO2 SLP969 T11611189 FZRANO
PAGA 151856Z AUTO 00000KT 10SM CLR M15/M17 A2942 RMK AO2 SLP966 T11501167 FZRANO
PAGA 151756Z AUTO 00000KT 10SM CLR M14/M16 A2940 RMK AO2 SLP961 T11391156 11100 21139 53013 FZRANO
PAGA 151656Z AUTO 30004KT 10SM CLR M13/M14 A2938 RMK AO2 SLP954 T11331144 FZRANO
PAGA 151556Z AUTO 00000KT 10SM OVC100 M13/M14 A2937 RMK AO2 SLP949 T11281139 FZRANO
PAGA 151456Z AUTO 00000KT 10SM CLR M14/M16 A2936 RMK AO2 SLP947 T11391156 53006 FZRANO
PAGA 151356Z AUTO 34004KT 10SM CLR M12/M13 A2935 RMK AO2 SLP943 T11171128 FZRANO
PAGA 151256Z AUTO 01006KT 10SM OVC100 M10/M12 A2934 RMK AO2 SLP941 T11001117 FZRANO
PAGA 151156Z AUTO 34004KT 10SM SCT100 M12/M13 A2934 RMK AO2 SLP941 T11171133 11100 21122 51012 FZRANO
PAGA 151056Z AUTO 35003KT 10SM OVC090 M11/M12 A2934 RMK AO2 SLP938 T11061122 FZRANO